Time;durP1;ratioP1;P1;durP2;ratioP2;P2;SDS_P1;SDS_P2;PMS_P1;PMS_P2;Temp;Humidity;BMP_temperature;BMP_pressure;BME280_temperature;BME280_humidity;BME280_pressure;Samples;Min_cycle;Max_cycle;Signal;HPM_P1;HPM_P2
2022/03/16 00:02:58;;;;;;;176.58;67.15;;;;;;;6.02;71.95;101269.41;713573;1175;115874;-71
2022/03/16 00:18:03;;;;;;;147.17;58.93;;;;;;;6.14;71.77;101261.80;713290;1176;115852;-71
2022/03/16 00:33:05;;;;;;;139.83;54.13;;;;;;;6.21;72.11;101251.05;713589;1175;115830;-72
2022/03/16 00:48:07;;;;;;;130.05;52.38;;;;;;;6.35;72.37;101256.35;713535;1174;115669;-71
2022/03/16 01:03:09;;;;;;;128.57;51.70;;;;;;;6.57;73.16;101255.16;713394;1174;115715;-71
2022/03/16 01:18:11;;;;;;;157.20;56.97;;;;;;;6.76;73.51;101247.16;713344;1175;115919;-71
2022/03/16 01:33:14;;;;;;;128.45;49.73;;;;;;;6.92;73.48;101234.07;712939;1175;116054;-70
2022/03/16 01:48:17;;;;;;;96.33;42.07;;;;;;;7.02;73.30;101235.23;713253;1175;115907;-72
2022/03/16 02:03:19;;;;;;;82.63;37.58;;;;;;;6.99;74.00;101233.63;712741;1177;115131;-71
2022/03/16 02:18:21;;;;;;;88.40;37.30;;;;;;;7.07;74.22;101235.77;713210;1175;115841;-71
2022/03/16 02:33:23;;;;;;;93.25;41.15;;;;;;;7.11;74.40;101252.09;712994;1175;115753;-71
2022/03/16 02:48:26;;;;;;;87.15;38.20;;;;;;;7.14;74.65;101257.98;712982;1177;115733;-71
2022/03/16 03:03:28;;;;;;;72.78;34.35;;;;;;;7.13;74.93;101265.91;713057;1177;115918;-73
2022/03/16 03:18:30;;;;;;;75.07;32.73;;;;;;;7.11;75.26;101272.97;713102;1177;115654;-71
2022/03/16 03:33:32;;;;;;;70.85;30.85;;;;;;;7.19;75.67;101275.97;712978;1174;115710;-71
2022/03/16 03:48:35;;;;;;;79.35;33.85;;;;;;;7.21;76.10;101284.56;713028;1176;115542;-71
2022/03/16 04:03:37;;;;;;;65.85;30.50;;;;;;;7.22;76.22;101301.91;712899;1174;115811;-72
2022/03/16 04:18:40;;;;;;;74.05;32.30;;;;;;;7.10;76.41;101303.45;713140;1177;115528;-72
2022/03/16 04:33:42;;;;;;;90.95;35.15;;;;;;;7.07;77.06;101308.83;713007;1175;115573;-72
2022/03/16 04:48:44;;;;;;;72.60;32.63;;;;;;;6.85;77.28;101316.20;713100;1176;115625;-71
2022/03/16 05:03:46;;;;;;;78.63;33.80;;;;;;;6.71;77.72;101320.41;713226;1177;115750;-71
2022/03/16 05:18:48;;;;;;;73.50;32.30;;;;;;;6.75;77.86;101334.97;713019;1177;115922;-71
2022/03/16 05:33:50;;;;;;;101.95;42.48;;;;;;;6.68;77.45;101335.38;713040;1175;115148;-71
2022/03/16 05:48:53;;;;;;;104.28;40.65;;;;;;;6.72;77.34;101357.75;713274;1177;115899;-71
2022/03/16 06:03:55;;;;;;;88.78;37.30;;;;;;;6.93;77.57;101374.02;712977;1175;115760;-73
2022/03/16 06:18:57;;;;;;;74.18;33.85;;;;;;;7.48;77.18;101396.14;712922;1175;115794;-75
2022/03/16 06:34:00;;;;;;;201.93;68.78;;;;;;;7.76;75.48;101403.23;712876;1174;115808;-72
2022/03/16 06:49:02;;;;;;;105.58;46.75;;;;;;;8.10;74.35;101416.93;713291;1177;115729;-72
2022/03/16 07:04:04;;;;;;;92.10;44.30;;;;;;;8.48;72.81;101428.64;714518;1175;115796;-72
2022/03/16 07:19:07;;;;;;;105.37;47.17;;;;;;;9.07;70.17;101445.97;713713;1174;115226;-77
2022/03/16 07:34:09;;;;;;;147.77;59.50;;;;;;;9.12;68.92;101456.98;713365;1174;115511;-78
2022/03/16 07:49:12;;;;;;;110.03;52.40;;;;;;;9.62;67.15;101470.36;713516;1177;115724;-80
2022/03/16 08:04:15;;;;;;;93.53;47.80;;;;;;;9.96;66.03;101482.11;713471;1175;116277;-79
2022/03/16 08:19:19;;;;;;;116.60;56.50;;;;;;;11.48;65.74;101492.65;713789;1175;115406;-79
2022/03/16 08:34:21;;;;;;;107.33;51.27;;;;;;;12.14;64.18;101514.11;713965;1174;115273;-77
2022/03/16 08:49:24;;;;;;;87.28;45.13;;;;;;;12.57;63.89;101509.16;713586;1176;115709;-78
2022/03/16 09:04:26;;;;;;;204.80;88.25;;;;;;;14.01;62.60;101514.39;715218;1174;115275;-74
2022/03/16 09:19:29;;;;;;;61.50;33.95;;;;;;;15.25;60.29;101522.38;713811;1174;114914;-74
2022/03/16 09:34:31;;;;;;;65.95;36.28;;;;;;;15.57;58.42;101534.53;714489;1175;115188;-75
2022/03/16 09:49:37;;;;;;;77.88;39.63;;;;;;;16.73;56.86;101548.63;713999;1175;115696;-74
2022/03/16 10:04:40;;;;;;;61.63;37.35;;;;;;;17.39;54.43;101570.67;713765;1177;115292;-74
2022/03/16 10:19:45;;;;;;;85.83;48.70;;;;;;;17.66;52.42;101574.28;713376;1176;115619;-75
2022/03/16 10:34:55;;;;;;;69.00;42.05;;;;;;;17.89;51.74;101581.80;713601;1176;115940;-74
2022/03/16 10:50:06;;;;;;;84.88;43.55;;;;;;;17.74;49.98;101594.77;716444;1176;116085;-73
2022/03/16 11:05:10;;;;;;;77.18;37.00;;;;;;;16.90;49.97;101584.16;713698;1175;115362;-73
2022/03/16 11:20:14;;;;;;;59.15;34.70;;;;;;;16.24;49.75;101588.47;713703;1177;115587;-80
2022/03/16 11:35:17;;;;;;;59.68;34.65;;;;;;;17.64;49.63;101570.94;713734;1175;116146;-74
2022/03/16 11:50:20;;;;;;;120.53;55.55;;;;;;;16.29;48.06;101617.19;714391;1177;116427;-74
2022/03/16 12:05:26;;;;;;;69.07;36.63;;;;;;;15.86;48.88;101606.02;713867;1175;116127;-74
2022/03/16 12:20:37;;;;;;;67.57;36.43;;;;;;;17.26;47.99;101602.02;713888;1177;116226;-81
2022/03/16 12:35:40;;;;;;;72.87;36.40;;;;;;;18.65;46.89;101593.70;715843;1175;114984;-80
2022/03/16 12:50:44;;;;;;;52.10;29.45;;;;;;;18.99;46.17;101600.91;713369;1177;114619;-83
2022/03/16 13:05:47;;;;;;;72.55;32.48;;;;;;;18.88;46.24;101604.62;713369;1174;115952;-82
2022/03/16 13:20:49;;;;;;;39.45;24.00;;;;;;;17.74;46.45;101619.47;713419;1174;115985;-81
2022/03/16 13:36:13;;;;;;;42.13;22.95;;;;;;;17.44;47.06;101632.06;713902;1176;115410;-81
2022/03/16 13:51:15;;;;;;;38.30;22.40;;;;;;;20.15;47.54;101638.49;713163;1177;114702;-81
2022/03/16 14:06:17;;;;;;;82.60;40.60;;;;;;;26.78;42.68;101640.30;713594;1176;114626;-81
2022/03/16 14:21:20;;;;;;;41.50;24.75;;;;;;;28.04;40.22;101646.17;713592;1176;115938;-82
2022/03/16 14:36:26;;;;;;;38.80;24.08;;;;;;;27.65;39.25;101653.45;713572;1177;115801;-82
2022/03/16 14:51:30;;;;;;;49.50;26.80;;;;;;;26.57;39.82;101661.02;713594;1174;115566;-83
2022/03/16 15:06:32;;;;;;;51.75;27.00;;;;;;;23.88;40.37;101663.38;713722;1177;115607;-72
2022/03/16 15:21:37;;;;;;;76.68;36.90;;;;;;;19.10;44.09;101672.41;713105;1177;115315;-73
2022/03/16 15:36:39;;;;;;;85.25;44.25;;;;;;;17.07;47.46;101687.78;713248;1175;116236;-72
2022/03/16 15:51:41;;;;;;;59.28;34.88;;;;;;;15.74;49.42;101687.28;713268;1174;115397;-73
2022/03/16 16:06:46;;;;;;;47.28;25.10;;;;;;;14.75;51.78;101700.98;713506;1175;115507;-73
2022/03/16 16:21:51;;;;;;;52.87;26.07;;;;;;;13.77;53.91;101729.08;713532;1175;115874;-73
2022/03/16 16:36:59;;;;;;;135.15;54.15;;;;;;;12.65;54.63;101741.06;713726;1177;114961;-74
2022/03/16 16:52:01;;;;;;;132.20;57.25;;;;;;;11.51;56.64;101771.00;713433;1177;115700;-74
2022/03/16 17:07:04;;;;;;;184.25;69.13;;;;;;;10.93;57.89;101786.27;713426;1176;114619;-73
2022/03/16 17:22:07;;;;;;;207.93;87.43;;;;;;;10.18;59.60;101803.21;713294;1176;116160;-72
2022/03/16 17:37:10;;;;;;;114.45;52.13;;;;;;;9.74;59.49;101812.02;713230;1177;115931;-72
2022/03/16 17:52:11;;;;;;;143.98;54.95;;;;;;;9.37;60.29;101820.30;713258;1175;115831;-72
2022/03/16 18:07:16;;;;;;;196.10;68.10;;;;;;;9.14;61.75;101840.78;713641;1177;114524;-72
2022/03/16 18:22:27;;;;;;;123.40;49.58;;;;;;;8.76;62.40;101843.82;713242;1177;115906;-72
2022/03/16 18:37:30;;;;;;;253.05;88.08;;;;;;;8.55;62.57;101842.38;713495;1175;115943;-72
2022/03/16 18:52:33;;;;;;;542.57;216.77;;;;;;;8.20;63.65;101856.39;713589;1177;115885;-72
2022/03/16 19:07:36;;;;;;;262.17;106.30;;;;;;;7.87;64.88;101872.08;713768;1174;114658;-72
2022/03/16 19:22:40;;;;;;;228.90;93.75;;;;;;;7.57;65.66;101886.59;713736;1175;115930;-71
2022/03/16 19:37:43;;;;;;;311.70;111.40;;;;;;;7.32;65.55;101898.27;714058;1176;115035;-72
2022/03/16 19:52:46;;;;;;;206.50;82.40;;;;;;;6.88;66.03;101910.83;714005;1176;116255;-72
2022/03/16 20:07:49;;;;;;;191.07;75.43;;;;;;;6.60;67.06;101922.53;714186;1176;115839;-73
2022/03/16 20:22:52;;;;;;;170.30;70.07;;;;;;;6.44;67.03;101920.60;713777;1177;116068;-73
2022/03/16 20:37:56;;;;;;;188.33;80.90;;;;;;;6.00;68.34;101923.38;713811;1177;115648;-72
2022/03/16 20:52:58;;;;;;;140.37;56.50;;;;;;;5.94;69.18;101934.88;713766;1174;115826;-72
2022/03/16 21:08:02;;;;;;;159.43;63.58;;;;;;;5.75;68.43;101950.41;713723;1175;116010;-71
2022/03/16 21:23:05;;;;;;;203.63;73.60;;;;;;;5.59;69.92;101957.17;713536;1177;115343;-72
2022/03/16 21:38:08;;;;;;;151.63;61.27;;;;;;;5.46;69.19;101973.30;713521;1175;115844;-70
2022/03/16 21:53:10;;;;;;;246.55;86.35;;;;;;;5.22;69.34;101979.45;713775;1175;114505;-71
2022/03/16 22:08:20;;;;;;;149.20;59.60;;;;;;;4.85;70.04;101979.08;713642;1175;115785;-71
2022/03/16 22:23:23;;;;;;;179.25;65.30;;;;;;;4.77;69.91;102005.36;713352;1177;115028;-72
2022/03/16 22:38:25;;;;;;;144.53;53.70;;;;;;;4.37;69.48;102016.30;713677;1177;115916;-71
2022/03/16 22:53:27;;;;;;;122.03;48.48;;;;;;;4.31;69.08;102012.17;713613;1175;115819;-72
2022/03/16 23:08:30;;;;;;;111.55;47.25;;;;;;;4.00;69.37;102024.44;714001;1177;116075;-71
2022/03/16 23:23:32;;;;;;;131.75;52.15;;;;;;;3.83;69.46;102024.15;713611;1174;114835;-70
2022/03/16 23:38:34;;;;;;;118.10;45.75;;;;;;;3.58;69.34;102037.89;713398;1174;115260;-70
2022/03/16 23:53:37;;;;;;;157.53;54.20;;;;;;;3.38;69.70;102048.01;712917;1177;115678;-70
